Terminal Aerodrome Forecast
Issued by NWS

Home | Current Version | Previous Version | Graphics & Text | Print | Product List | Glossary On
Versions: 1 2 3 4 5 6 7 8 9 10 11 12 13 14 15 16 17 18 19 20 21 22 23 24 25 26 27
324
FTUS43 KLOT 220843 AAA
TAFMDW
TAF AMD
KMDW 220843Z 2209/2306 VRB03KT P6SM OVC250
     FM221400 20006KT P6SM FEW030 BKN250
     FM221800 21011G18KT P6SM BKN250
     FM230100 VRB03KT P6SM BKN250=

USA.gov is the U.S. government's official web portal to all federal, state and local government web resources and services.